Burlington, CO

10:37 PM MDT on May 04, 2015 (GMT -0600)
Burlington | | Change Station
CLOSE
Current Station
Personal Weather Station
Location: Burlington, CO
Elevation: 4167 ft
Nearby Weather Stations

Elev 4167 ft 39.30 °N, 102.26 °W | Updated 45 seconds ago

Rain
Rain
50.2 °F
Feels Like 50.2 °F
N
5.4
Wind Variable Wind from NE
Gusts 9.2 mph

Today
High -- | Low -- °F
--% Chance of Precip.
Yesterday
High -- | Low -- °F
Precip. -- in
5:47 AM 7:45 PM
Full, 99% visible
Pressure 30.04 in
Visibility 10.0 miles
Clouds Scattered Clouds 1600 ft
Mostly Cloudy 3300 ft
Mostly Cloudy 12000 ft
Dew Point 47 °F
Humidity 90%
Rainfall 0.00 in
Snow Depth Not available.
UV 0 out of 12
Pollen 6.60 out of 12
Air Quality Not available.
Flu Activity Sporadic
METAR KITR 050353Z AUTO 09011KT 10SM SCT016 BKN033 BKN120 10/08 A3010 RMK AO2 SLP171 T01000078

More Conditions Fewer Conditions

Pressure 30.04 in
Visibility 10.0 miles
Clouds Scattered Clouds 1600 ft
Mostly Cloudy 3300 ft
Mostly Cloudy 12000 ft
Dew Point 47 °F
Humidity 90%
Rainfall 0.00 in
Snow Depth Not available.
UV 0 out of 12
Pollen 6.60 out of 12
Air Quality Not available.
Flu Activity Sporadic
METAR KITR 050353Z AUTO 09011KT 10SM SCT016 BKN033 BKN120 10/08 A3010 RMK AO2 SLP171 T01000078

More Conditions Fewer Conditions

Nepal has a long way to go to dig out and rebuild from a devastating earthquake. We have teamed up with several charities and organizations to make contributing to the relief effort as easy as possible.
How you can help: Portlight Strategies | Red Cross

10-Day Weather Forecast

Almanac

Astronomy

May. 04, 2015 Rise Set
Actual Time
Civil Twilight
Nautical Twilight
Astronomical Twilight
Moon
Length of Visible Light
Length of Day
Tomorrow will be .
, % of the Moon is Illuminated

Today's Extremes

State Highs State Lows

Community

WunderPhotos

Upload Photos

1,818,817 photos uploaded!

WunderBlogs® & News

Nearby

Air Quality

  Air Quality AQ Index Pollutant
Not available.

Snow Depth

Station Depth Elevation

Earthquake Activity

City Distance Mag. Time & Date
Minimum magnitude displayed is 2.5.

Coastal Water Temperatures

Place Temperature

Stations

Nearby Weather Stations

Station Location Temp. Windchill Dew Point Humidity Wind Precip. Elev Updated Type